Urb Sea Beach Colony, Puerto Rico
Current Conditions -  °F | °C
As of 6:50 AM on Friday 28 Nov 2014 (Local Time) from TJBQ Reporting Station
Clear Clear  
Wind Chill: 70°   Ceiling: Unl
Heat Index: 70°   Visibility: 10mi
Dew Point: 64°   Wind: 3mph
Humidity: 83%   Direction: 130°SE
Pressure: 29.97"   Gusts: NA
Location:  18.3427°N, 67.2504°W
Report Text: TJBQ 281050Z 13003KT 10SM SKC 21/18 A2997 RMK RWY 08- ATIS P
Loading
Personal Weather Stations






























Interactive Weather Map New forecast layout! Learn more

10-Day Weather Forecast

Advertisements
Track Severe Weather on mobile